createdAt,value
2023-05-13T00:00:01.963Z,24.94
2023-05-13T00:01:01.990Z,24.92
2023-05-13T00:02:01.969Z,24.92
2023-05-13T00:03:02.053Z,24.92
2023-05-13T00:04:01.984Z,24.90
2023-05-13T00:05:02.014Z,24.91
2023-05-13T00:06:02.034Z,24.91
2023-05-13T00:07:02.012Z,24.91
2023-05-13T00:08:02.164Z,24.92
2023-05-13T00:09:02.019Z,24.91
2023-05-13T00:10:02.023Z,24.92
2023-05-13T00:11:02.012Z,24.94
2023-05-13T00:12:02.015Z,24.92
2023-05-13T00:13:02.024Z,24.91
2023-05-13T00:14:02.030Z,24.92
2023-05-13T00:15:02.038Z,24.91
2023-05-13T00:16:02.081Z,24.92
2023-05-13T00:17:02.061Z,24.90
2023-05-13T00:18:02.096Z,24.94
2023-05-13T00:19:02.095Z,24.91
2023-05-13T00:20:02.066Z,24.88
2023-05-13T00:21:02.064Z,24.92
2023-05-13T00:22:02.075Z,24.94
2023-05-13T00:23:02.077Z,24.90
2023-05-13T00:24:02.080Z,24.90
2023-05-13T00:25:02.073Z,24.91
2023-05-13T00:26:02.075Z,24.90
2023-05-13T00:27:02.082Z,24.92
2023-05-13T00:28:02.092Z,24.91
2023-05-13T00:29:02.108Z,24.91
2023-05-13T00:30:02.102Z,24.91
2023-05-13T00:31:02.114Z,24.91
2023-05-13T00:32:02.152Z,24.88
2023-05-13T00:33:02.179Z,24.90
2023-05-13T00:34:02.127Z,24.90
2023-05-13T00:35:02.150Z,24.87
2023-05-13T00:36:02.121Z,24.90
2023-05-13T00:37:02.120Z,24.90
2023-05-13T00:38:02.125Z,24.90
2023-05-13T00:39:02.125Z,24.88
2023-05-13T00:40:02.151Z,24.90
2023-05-13T00:41:02.164Z,24.91
2023-05-13T00:42:02.163Z,24.88
2023-05-13T00:43:02.168Z,24.88
2023-05-13T00:44:02.156Z,24.88
2023-05-13T00:45:02.164Z,24.85
2023-05-13T00:46:02.267Z,24.88
2023-05-13T00:47:02.167Z,24.87
2023-05-13T00:48:02.264Z,24.88
2023-05-13T00:49:02.193Z,24.88
2023-05-13T00:50:02.200Z,24.90
2023-05-13T00:51:02.180Z,24.90
2023-05-13T00:52:02.183Z,24.88
2023-05-13T00:53:02.190Z,24.87
2023-05-13T00:54:02.201Z,24.88
2023-05-13T00:55:02.217Z,24.87
2023-05-13T00:56:02.221Z,24.85
2023-05-13T00:57:02.218Z,24.87
2023-05-13T00:58:02.223Z,24.88
2023-05-13T00:59:02.231Z,24.88
2023-05-13T01:00:02.220Z,24.88
2023-05-13T01:01:02.262Z,24.87
2023-05-13T01:02:02.327Z,24.85
2023-05-13T01:03:02.302Z,24.90
2023-05-13T01:04:02.249Z,24.88
2023-05-13T01:05:02.259Z,24.85
2023-05-13T01:06:02.261Z,24.90
2023-05-13T01:07:02.267Z,24.85
2023-05-13T01:08:02.283Z,24.88
2023-05-13T01:09:02.286Z,24.84
2023-05-13T01:10:02.307Z,24.88
2023-05-13T01:11:02.319Z,24.87
2023-05-13T01:12:02.302Z,24.88
2023-05-13T01:13:02.775Z,24.87
2023-05-13T01:14:02.323Z,24.88
2023-05-13T01:15:02.331Z,24.88
2023-05-13T01:16:02.340Z,24.87
2023-05-13T01:17:02.518Z,24.85
2023-05-13T01:18:02.895Z,24.87
2023-05-13T01:19:02.423Z,24.87
2023-05-13T01:20:02.383Z,24.87
2023-05-13T01:21:02.374Z,24.85
2023-05-13T01:22:02.378Z,24.85
2023-05-13T01:23:02.445Z,24.84
2023-05-13T01:24:02.434Z,24.85
2023-05-13T01:25:02.408Z,24.87
2023-05-13T01:26:02.433Z,24.85
2023-05-13T01:27:02.448Z,24.87
2023-05-13T01:28:02.464Z,24.87
2023-05-13T01:29:02.457Z,24.84
2023-05-13T01:30:02.463Z,24.87
2023-05-13T01:31:02.521Z,24.85
2023-05-13T01:32:02.494Z,24.84
2023-05-13T01:33:02.569Z,24.87
2023-05-13T01:34:02.502Z,24.85
2023-05-13T01:35:02.525Z,24.87
2023-05-13T01:36:02.537Z,24.85
2023-05-13T01:37:02.561Z,24.87
2023-05-13T01:38:02.577Z,24.85
2023-05-13T01:39:02.561Z,24.85
2023-05-13T01:40:04.543Z,24.87
2023-05-13T01:41:03.567Z,24.84
2023-05-13T01:42:02.547Z,24.84
2023-05-13T01:43:02.543Z,24.82
2023-05-13T01:44:02.543Z,24.87
2023-05-13T01:45:02.546Z,24.84
2023-05-13T01:46:02.563Z,24.85
2023-05-13T01:47:02.528Z,24.87
2023-05-13T01:48:02.606Z,24.87
2023-05-13T01:49:02.512Z,24.87
2023-05-13T01:50:02.512Z,24.85
2023-05-13T01:51:02.498Z,24.84
2023-05-13T01:52:02.486Z,24.87
2023-05-13T01:53:02.498Z,24.84
2023-05-13T01:54:02.487Z,24.85
2023-05-13T01:55:02.481Z,24.85
2023-05-13T01:56:02.459Z,24.85
2023-05-13T01:57:02.463Z,24.82
2023-05-13T01:58:02.466Z,24.87
2023-05-13T01:59:02.442Z,24.84
2023-05-13T02:00:02.431Z,24.85
2023-05-13T02:01:02.428Z,24.84
2023-05-13T02:02:02.520Z,24.84
2023-05-13T02:03:02.492Z,24.81
2023-05-13T02:04:02.539Z,24.85
2023-05-13T02:05:02.398Z,24.82
2023-05-13T02:06:02.405Z,24.85
2023-05-13T02:07:02.381Z,24.82
2023-05-13T02:08:02.382Z,24.84
2023-05-13T02:09:02.368Z,24.84
2023-05-13T02:10:02.362Z,24.84
2023-05-13T02:11:02.349Z,24.85
2023-05-13T02:12:02.344Z,24.84
2023-05-13T02:13:02.437Z,24.85
2023-05-13T02:14:02.359Z,24.82
2023-05-13T02:15:02.341Z,24.84
2023-05-13T02:16:02.362Z,24.82
2023-05-13T02:17:02.318Z,24.82
2023-05-13T02:18:02.376Z,24.81
2023-05-13T02:19:02.371Z,24.85
2023-05-13T02:20:02.334Z,24.82
2023-05-13T02:21:02.365Z,24.82
2023-05-13T02:22:02.357Z,24.84
2023-05-13T02:23:02.367Z,24.85
2023-05-13T02:24:02.369Z,24.84
2023-05-13T02:25:02.378Z,24.84
2023-05-13T02:26:02.409Z,24.87
2023-05-13T02:27:02.397Z,24.84
2023-05-13T02:28:02.409Z,24.85
2023-05-13T02:29:02.438Z,24.84
2023-05-13T02:30:02.442Z,24.84
2023-05-13T02:31:02.452Z,24.80
2023-05-13T02:32:02.493Z,24.84
2023-05-13T02:33:02.620Z,24.85
2023-05-13T02:34:02.519Z,24.82
2023-05-13T02:35:02.514Z,24.85
2023-05-13T02:36:02.544Z,24.81
2023-05-13T02:37:02.557Z,24.84
2023-05-13T02:38:02.552Z,24.82
2023-05-13T02:39:02.572Z,24.81
2023-05-13T02:40:02.562Z,24.82
2023-05-13T02:41:02.599Z,24.81
2023-05-13T02:42:02.595Z,24.81
2023-05-13T02:43:02.609Z,24.84
2023-05-13T02:44:02.639Z,24.84
2023-05-13T02:45:02.642Z,24.82
2023-05-13T02:46:02.724Z,24.82
2023-05-13T02:47:02.688Z,24.82
2023-05-13T02:48:02.760Z,24.82
2023-05-13T02:49:02.693Z,24.81
2023-05-13T02:50:02.702Z,24.82
2023-05-13T02:51:02.724Z,24.82
2023-05-13T02:52:02.746Z,24.82
2023-05-13T02:53:02.761Z,24.81
2023-05-13T02:54:02.752Z,24.81
2023-05-13T02:55:02.838Z,24.80
2023-05-13T02:56:02.797Z,24.82
2023-05-13T02:57:02.801Z,24.81
2023-05-13T02:58:02.847Z,24.80
2023-05-13T02:59:02.836Z,24.82
2023-05-13T03:00:02.871Z,24.84
2023-05-13T03:01:02.899Z,24.81
2023-05-13T03:02:02.901Z,24.82
2023-05-13T03:03:02.995Z,24.80
2023-05-13T03:04:02.934Z,24.80
2023-05-13T03:05:02.946Z,24.82
2023-05-13T03:06:02.952Z,24.81
2023-05-13T03:07:02.959Z,24.81
2023-05-13T03:08:02.988Z,24.81
2023-05-13T03:09:02.998Z,24.80
2023-05-13T03:10:03.010Z,24.82
2023-05-13T03:11:03.038Z,24.81
2023-05-13T03:12:03.102Z,24.84
2023-05-13T03:13:03.099Z,24.80
2023-05-13T03:14:03.115Z,24.78
2023-05-13T03:15:03.106Z,24.81
2023-05-13T03:16:03.194Z,24.80
2023-05-13T03:17:03.161Z,24.84
2023-05-13T03:18:03.333Z,24.81
2023-05-13T03:19:03.235Z,24.81
2023-05-13T03:20:03.207Z,24.80
2023-05-13T03:21:03.239Z,24.81
2023-05-13T03:22:03.244Z,24.81
2023-05-13T03:23:03.255Z,24.80
2023-05-13T03:24:03.281Z,24.80
2023-05-13T03:25:03.322Z,24.81
2023-05-13T03:26:03.336Z,24.80
2023-05-13T03:27:03.330Z,24.80
2023-05-13T03:28:03.366Z,24.81
2023-05-13T03:29:03.384Z,24.80
2023-05-13T03:30:03.406Z,24.80
2023-05-13T03:31:03.452Z,24.78
2023-05-13T03:32:03.451Z,24.81
2023-05-13T03:33:03.510Z,24.80
2023-05-13T03:34:03.486Z,24.81
2023-05-13T03:35:03.509Z,24.77
2023-05-13T03:36:03.528Z,24.78
2023-05-13T03:37:03.567Z,24.80
2023-05-13T03:38:03.599Z,24.80
2023-05-13T03:39:03.604Z,24.80
2023-05-13T03:40:03.620Z,24.78
2023-05-13T03:41:03.669Z,24.80
2023-05-13T03:42:03.680Z,24.77
2023-05-13T03:43:03.683Z,24.78
2023-05-13T03:44:03.715Z,24.80
2023-05-13T03:45:03.722Z,24.78
2023-05-13T03:46:03.732Z,24.77
2023-05-13T03:47:03.874Z,24.78
2023-05-13T03:48:03.845Z,24.78
2023-05-13T03:49:03.792Z,24.78
2023-05-13T03:50:03.811Z,24.78
2023-05-13T03:51:03.831Z,24.77
2023-05-13T03:52:03.863Z,24.80
2023-05-13T03:53:03.868Z,24.75
2023-05-13T03:54:03.905Z,24.80
2023-05-13T03:55:03.921Z,24.75
2023-05-13T03:56:03.936Z,24.75
2023-05-13T03:57:03.973Z,24.78
2023-05-13T03:58:03.982Z,24.78
2023-05-13T03:59:04.031Z,24.78
2023-05-13T04:00:04.010Z,24.77
2023-05-13T04:01:04.046Z,24.80
2023-05-13T04:02:04.130Z,24.78
2023-05-13T04:03:04.138Z,24.78
2023-05-13T04:04:04.132Z,24.77
2023-05-13T04:05:04.153Z,24.80
2023-05-13T04:06:04.159Z,24.75
2023-05-13T04:07:04.191Z,24.77
2023-05-13T04:08:04.212Z,24.78
2023-05-13T04:09:04.232Z,24.78
2023-05-13T04:10:04.248Z,24.80
2023-05-13T04:11:04.308Z,24.78
2023-05-13T04:12:04.314Z,24.77
2023-05-13T04:13:04.314Z,24.77
2023-05-13T04:14:04.341Z,24.77
2023-05-13T04:15:04.371Z,24.78
2023-05-13T04:16:04.390Z,24.78
2023-05-13T04:17:04.539Z,24.75
2023-05-13T04:18:04.525Z,24.77
2023-05-13T04:19:04.519Z,24.78
2023-05-13T04:20:04.489Z,24.78
2023-05-13T04:21:04.522Z,24.77
2023-05-13T04:22:04.514Z,24.78
2023-05-13T04:23:04.529Z,24.78
2023-05-13T04:24:04.597Z,24.78
2023-05-13T04:25:04.581Z,24.78
2023-05-13T04:26:04.600Z,24.77
2023-05-13T04:27:04.666Z,24.75
2023-05-13T04:28:04.644Z,24.78
2023-05-13T04:29:04.667Z,24.75
2023-05-13T04:30:04.683Z,24.78
2023-05-13T04:31:04.709Z,24.78
2023-05-13T04:32:04.773Z,24.78
2023-05-13T04:33:04.809Z,24.75
2023-05-13T04:34:04.783Z,24.77
2023-05-13T04:35:04.781Z,24.77
2023-05-13T04:36:04.795Z,24.77
2023-05-13T04:37:04.827Z,24.77
2023-05-13T04:38:04.874Z,24.78
2023-05-13T04:39:05.399Z,24.77
2023-05-13T04:40:04.926Z,24.75
2023-05-13T04:41:04.935Z,24.77
2023-05-13T04:42:04.972Z,24.78
2023-05-13T04:43:04.971Z,24.75
2023-05-13T04:44:04.986Z,24.74
2023-05-13T04:45:05.008Z,24.78
2023-05-13T04:46:05.089Z,24.75
2023-05-13T04:47:05.051Z,24.77
2023-05-13T04:48:05.132Z,24.77
2023-05-13T04:49:05.080Z,24.77
2023-05-13T04:50:05.100Z,24.78
2023-05-13T04:51:05.116Z,24.77
2023-05-13T04:52:05.128Z,24.78
2023-05-13T04:53:05.169Z,24.77
2023-05-13T04:54:05.173Z,24.78
2023-05-13T04:55:05.240Z,24.74
2023-05-13T04:56:05.227Z,24.77
2023-05-13T04:57:05.237Z,24.77
2023-05-13T04:58:05.321Z,24.78
2023-05-13T04:59:05.291Z,24.75
2023-05-13T05:00:05.330Z,24.75
2023-05-13T05:01:05.328Z,24.75
2023-05-13T05:02:05.464Z,24.77
2023-05-13T05:03:05.421Z,24.75
2023-05-13T05:04:05.438Z,24.75
2023-05-13T05:05:05.412Z,24.75
2023-05-13T05:06:05.436Z,24.77
2023-05-13T05:07:05.452Z,24.77
2023-05-13T05:08:05.468Z,24.77
2023-05-13T05:09:05.499Z,24.74
2023-05-13T05:10:05.513Z,24.77
2023-05-13T05:11:05.517Z,24.74
2023-05-13T05:12:05.541Z,24.77
2023-05-13T05:13:05.561Z,24.75
2023-05-13T05:14:05.607Z,24.78
2023-05-13T05:15:05.614Z,24.75
2023-05-13T05:16:05.636Z,24.77
2023-05-13T05:17:05.730Z,24.77
2023-05-13T05:18:05.780Z,24.75
2023-05-13T05:19:05.775Z,24.77
2023-05-13T05:20:05.758Z,24.75
2023-05-13T05:21:05.818Z,24.75
2023-05-13T05:22:05.821Z,24.77
2023-05-13T05:23:05.831Z,24.77
2023-05-13T05:24:05.879Z,24.77
2023-05-13T05:25:05.900Z,24.77
2023-05-13T05:26:11.620Z,24.77
2023-05-13T05:27:06.916Z,24.77
2023-05-13T05:28:05.924Z,24.75
2023-05-13T05:29:05.913Z,24.77
2023-05-13T05:30:05.898Z,24.74
2023-05-13T05:31:05.897Z,24.78
2023-05-13T05:32:05.955Z,24.77
2023-05-13T05:33:05.918Z,24.74
2023-05-13T05:34:05.886Z,24.77
2023-05-13T05:35:05.860Z,24.80
2023-05-13T05:36:05.851Z,24.77
2023-05-13T05:37:05.846Z,24.77
2023-05-13T05:38:05.843Z,24.77
2023-05-13T05:39:05.849Z,24.78
2023-05-13T05:40:05.830Z,24.75
2023-05-13T05:41:05.825Z,24.77
2023-05-13T05:42:05.823Z,24.77
2023-05-13T05:43:05.805Z,24.75
2023-05-13T05:44:05.800Z,24.80
2023-05-13T05:45:05.815Z,24.74
2023-05-13T05:46:05.833Z,24.75
2023-05-13T05:47:05.837Z,24.74
2023-05-13T05:48:05.891Z,24.78
2023-05-13T05:49:05.898Z,24.77
2023-05-13T05:50:05.908Z,24.78
2023-05-13T05:51:05.937Z,24.75
2023-05-13T05:52:05.959Z,24.72
2023-05-13T05:53:05.979Z,24.78
2023-05-13T05:54:06.019Z,24.75
2023-05-13T05:55:06.024Z,24.75
2023-05-13T05:56:06.056Z,24.77
2023-05-13T05:57:06.087Z,24.75
2023-05-13T05:58:06.108Z,24.74
2023-05-13T05:59:06.145Z,24.77
2023-05-13T06:00:06.191Z,24.72
2023-05-13T06:01:06.223Z,24.77
2023-05-13T06:02:06.277Z,24.75
2023-05-13T06:03:06.478Z,24.72
2023-05-13T06:04:06.327Z,24.77
2023-05-13T06:05:06.304Z,24.75
2023-05-13T06:06:06.337Z,24.75
2023-05-13T06:07:06.442Z,24.75
2023-05-13T06:08:06.397Z,24.78
2023-05-13T06:09:06.431Z,24.75
2023-05-13T06:10:08.243Z,24.75
2023-05-13T06:11:06.490Z,24.78
2023-05-13T06:12:06.532Z,24.75
2023-05-13T06:13:06.540Z,24.77
2023-05-13T06:14:06.581Z,24.77
2023-05-13T06:15:06.599Z,24.75
2023-05-13T06:16:06.756Z,24.75
2023-05-13T06:17:06.653Z,24.75
2023-05-13T06:18:06.710Z,24.77
2023-05-13T06:19:06.790Z,24.77
2023-05-13T06:20:06.754Z,24.77
2023-05-13T06:21:06.787Z,24.77
2023-05-13T06:22:06.812Z,24.77
2023-05-13T06:23:06.833Z,24.77
2023-05-13T06:24:06.892Z,24.74
2023-05-13T06:25:06.886Z,24.75
2023-05-13T06:26:06.932Z,24.77
2023-05-13T06:27:06.968Z,24.75
2023-05-13T06:28:06.976Z,24.77
2023-05-13T06:29:07.008Z,24.75
2023-05-13T06:30:07.040Z,24.74
2023-05-13T06:31:07.086Z,24.75
2023-05-13T06:32:07.088Z,24.77
2023-05-13T06:33:07.198Z,24.75
2023-05-13T06:34:07.160Z,24.77
2023-05-13T06:35:07.180Z,24.77
2023-05-13T06:36:07.214Z,24.78
2023-05-13T06:37:07.239Z,24.75
2023-05-13T06:38:07.260Z,24.75
2023-05-13T06:39:07.297Z,24.75
2023-05-13T06:40:07.324Z,24.78
2023-05-13T06:41:07.383Z,24.75
2023-05-13T06:42:07.405Z,24.75
2023-05-13T06:43:07.436Z,24.78
2023-05-13T06:44:07.482Z,24.78
2023-05-13T06:45:07.492Z,24.74
2023-05-13T06:46:07.527Z,24.75
2023-05-13T06:47:07.580Z,24.77
2023-05-13T06:48:07.691Z,24.75
2023-05-13T06:49:07.605Z,24.77
2023-05-13T06:50:07.632Z,24.80
2023-05-13T06:51:07.663Z,24.77
2023-05-13T06:52:07.679Z,24.74
2023-05-13T06:53:07.697Z,24.80
2023-05-13T06:54:07.728Z,24.78
2023-05-13T06:55:07.779Z,24.77
2023-05-13T06:56:07.785Z,24.80
2023-05-13T06:57:07.817Z,24.80
2023-05-13T06:58:07.826Z,24.74
2023-05-13T06:59:07.892Z,24.78
2023-05-13T07:00:07.894Z,24.80
2023-05-13T07:01:07.999Z,24.80
2023-05-13T07:02:07.933Z,24.81
2023-05-13T07:03:08.006Z,24.81
2023-05-13T07:04:08.166Z,24.80
2023-05-13T07:05:09.750Z,24.80
2023-05-13T07:06:08.006Z,24.81
2023-05-13T07:07:08.001Z,24.80
2023-05-13T07:08:08.002Z,24.80
2023-05-13T07:09:08.542Z,24.80
2023-05-13T07:10:07.985Z,24.78
2023-05-13T07:11:07.969Z,24.82
2023-05-13T07:12:07.957Z,24.81
2023-05-13T07:13:07.976Z,24.78
2023-05-13T07:14:07.951Z,24.84
2023-05-13T07:15:07.932Z,24.81
2023-05-13T07:16:07.927Z,24.82
2023-05-13T07:17:07.955Z,24.80
2023-05-13T07:18:08.022Z,24.81
2023-05-13T07:19:08.006Z,24.82
2023-05-13T07:20:07.904Z,24.81
2023-05-13T07:21:07.903Z,24.81
2023-05-13T07:22:07.887Z,24.81
2023-05-13T07:23:07.885Z,24.82
2023-05-13T07:24:07.876Z,24.80
2023-05-13T07:25:07.871Z,24.82
2023-05-13T07:26:07.868Z,24.81
2023-05-13T07:27:07.850Z,24.81
2023-05-13T07:28:07.853Z,24.81
2023-05-13T07:29:07.846Z,24.81
2023-05-13T07:30:07.838Z,24.81
2023-05-13T07:31:07.863Z,24.81
2023-05-13T07:32:07.812Z,24.82
2023-05-13T07:33:07.878Z,24.84
2023-05-13T07:34:07.813Z,24.80
2023-05-13T07:35:07.794Z,24.81
2023-05-13T07:36:07.778Z,24.81
2023-05-13T07:37:07.805Z,24.82
2023-05-13T07:38:07.817Z,24.82
2023-05-13T07:39:07.765Z,24.84
2023-05-13T07:40:07.818Z,24.81
2023-05-13T07:41:07.766Z,24.85
2023-05-13T07:42:07.734Z,24.81
2023-05-13T07:43:07.724Z,24.81
2023-05-13T07:44:07.743Z,24.82
2023-05-13T07:45:07.733Z,24.81
2023-05-13T07:46:07.706Z,24.80
2023-05-13T07:47:07.767Z,24.82
2023-05-13T07:48:07.720Z,24.85
2023-05-13T07:49:07.740Z,24.82
2023-05-13T07:50:07.687Z,24.82
2023-05-13T07:51:07.688Z,24.84
2023-05-13T07:52:07.678Z,24.84
2023-05-13T07:53:07.658Z,24.84
2023-05-13T07:54:07.720Z,24.84
2023-05-13T07:55:07.642Z,24.87
2023-05-13T07:56:07.646Z,24.87
2023-05-13T07:57:07.636Z,24.84
2023-05-13T07:58:07.632Z,24.87
2023-05-13T07:59:07.628Z,24.88
2023-05-13T08:00:07.620Z,24.85
2023-05-13T08:01:07.600Z,24.87
2023-05-13T08:02:07.616Z,24.87
2023-05-13T08:03:07.700Z,24.87
2023-05-13T08:04:07.706Z,24.88
2023-05-13T08:05:07.628Z,24.88
2023-05-13T08:06:07.577Z,24.88
2023-05-13T08:07:07.563Z,24.88
2023-05-13T08:08:07.567Z,24.90
2023-05-13T08:09:07.549Z,24.87
2023-05-13T08:10:07.562Z,24.90
2023-05-13T08:11:07.551Z,24.87
2023-05-13T08:12:07.524Z,24.87
2023-05-13T08:13:07.534Z,24.91
2023-05-13T08:14:07.528Z,24.90
2023-05-13T08:15:07.547Z,24.90
2023-05-13T08:16:07.565Z,24.88
2023-05-13T08:17:07.526Z,24.88
2023-05-13T08:18:07.524Z,24.88
2023-05-13T08:19:07.570Z,24.87
2023-05-13T08:20:07.488Z,24.91
2023-05-13T08:21:07.481Z,24.90
2023-05-13T08:22:07.469Z,24.88
2023-05-13T08:23:07.481Z,24.90
2023-05-13T08:24:07.450Z,24.90
2023-05-13T08:25:07.444Z,24.91
2023-05-13T08:26:07.440Z,24.90
2023-05-13T08:27:07.444Z,24.90
2023-05-13T08:28:07.454Z,24.91
2023-05-13T08:29:07.476Z,24.92
2023-05-13T08:30:07.485Z,24.92
2023-05-13T08:31:07.486Z,24.91
2023-05-13T08:32:07.599Z,24.94
2023-05-13T08:33:07.537Z,24.92
2023-05-13T08:34:07.526Z,24.92
2023-05-13T08:35:07.554Z,24.95
2023-05-13T08:36:07.560Z,24.94
2023-05-13T08:37:07.555Z,24.94
2023-05-13T08:38:07.568Z,24.95
2023-05-13T08:39:07.583Z,24.95
2023-05-13T08:40:07.605Z,24.97
2023-05-13T08:41:07.611Z,24.94
2023-05-13T08:42:07.608Z,24.97
2023-05-13T08:43:07.621Z,24.98
2023-05-13T08:44:07.642Z,24.97
2023-05-13T08:45:07.648Z,24.97
2023-05-13T08:46:07.720Z,24.98
2023-05-13T08:47:07.655Z,24.97
2023-05-13T08:48:07.714Z,24.97
2023-05-13T08:49:07.685Z,24.98
2023-05-13T08:50:07.737Z,24.99
2023-05-13T08:51:07.688Z,25.01
2023-05-13T08:52:07.702Z,24.98
2023-05-13T08:53:07.715Z,25.01
2023-05-13T08:54:07.761Z,25.01
2023-05-13T08:55:07.733Z,24.98
2023-05-13T08:56:07.731Z,25.01
2023-05-13T08:57:07.767Z,24.98
2023-05-13T08:58:07.771Z,25.01
2023-05-13T08:59:07.772Z,24.98
2023-05-13T09:00:07.781Z,25.01
2023-05-13T09:01:07.861Z,24.98
2023-05-13T09:02:07.800Z,25.01
2023-05-13T09:03:07.820Z,25.02
2023-05-13T09:04:07.814Z,25.01
2023-05-13T09:05:07.899Z,24.99
2023-05-13T09:06:07.825Z,24.98
2023-05-13T09:07:07.853Z,24.99
2023-05-13T09:08:07.852Z,24.99
2023-05-13T09:09:07.856Z,25.01
2023-05-13T09:10:07.897Z,25.01
2023-05-13T09:11:07.878Z,25.01
2023-05-13T09:12:07.917Z,25.01
2023-05-13T09:13:07.903Z,25.01
2023-05-13T09:14:07.927Z,24.98
2023-05-13T09:15:07.928Z,24.99
2023-05-13T09:16:08.010Z,24.99
2023-05-13T09:17:07.995Z,25.01
2023-05-13T09:18:08.138Z,24.99
2023-05-13T09:19:08.067Z,24.99
2023-05-13T09:20:08.016Z,25.02
2023-05-13T09:21:08.001Z,24.97
2023-05-13T09:22:08.001Z,24.99
2023-05-13T09:23:08.024Z,24.99
2023-05-13T09:24:10.258Z,25.01
2023-05-13T09:25:08.023Z,25.01
2023-05-13T09:26:08.013Z,24.99
2023-05-13T09:27:08.012Z,24.98
2023-05-13T09:28:08.070Z,24.97
2023-05-13T09:29:07.978Z,24.98
2023-05-13T09:30:07.984Z,24.97
2023-05-13T09:31:08.044Z,24.99
2023-05-13T09:32:07.978Z,24.99
2023-05-13T09:33:08.074Z,24.97
2023-05-13T09:34:07.970Z,24.97
2023-05-13T09:35:07.952Z,24.95
2023-05-13T09:36:07.935Z,24.95
2023-05-13T09:37:07.948Z,24.95
2023-05-13T09:38:07.926Z,24.95
2023-05-13T09:39:07.929Z,24.95
2023-05-13T09:40:07.914Z,24.98
2023-05-13T09:41:07.931Z,24.97
2023-05-13T09:42:07.928Z,24.97
2023-05-13T09:43:07.876Z,24.98
2023-05-13T09:44:07.874Z,24.97
2023-05-13T09:45:07.875Z,24.98
2023-05-13T09:46:07.871Z,24.99
2023-05-13T09:47:07.993Z,24.99
2023-05-13T09:48:07.884Z,24.98
2023-05-13T09:49:07.849Z,24.98
2023-05-13T09:50:07.842Z,24.98
2023-05-13T09:51:07.841Z,24.99
2023-05-13T09:52:07.822Z,24.97
2023-05-13T09:53:07.812Z,24.95
2023-05-13T09:54:07.813Z,24.95
2023-05-13T09:55:07.810Z,24.97
2023-05-13T09:56:07.793Z,24.95
2023-05-13T09:57:07.795Z,24.97
2023-05-13T09:58:07.787Z,24.98
2023-05-13T09:59:07.815Z,24.98
2023-05-13T10:00:24.894Z,24.98
2023-05-13T10:01:08.774Z,24.99
2023-05-13T10:02:07.822Z,24.98
2023-05-13T10:03:07.771Z,24.97
2023-05-13T10:04:07.810Z,24.98
2023-05-13T10:05:07.742Z,24.99
2023-05-13T10:06:07.737Z,24.98
2023-05-13T10:07:07.725Z,24.98
2023-05-13T10:08:07.709Z,24.97
2023-05-13T10:09:07.707Z,24.99
2023-05-13T10:10:07.705Z,24.99
2023-05-13T10:11:07.700Z,25.01
2023-05-13T10:12:07.690Z,25.01
2023-05-13T10:13:07.680Z,24.97
2023-05-13T10:14:07.663Z,24.99
2023-05-13T10:15:07.680Z,24.99
2023-05-13T10:16:07.725Z,24.97
2023-05-13T10:17:07.666Z,24.99
2023-05-13T10:18:07.786Z,24.98
2023-05-13T10:19:07.702Z,24.99
2023-05-13T10:20:07.629Z,24.97
2023-05-13T10:21:07.628Z,25.01
2023-05-13T10:22:07.642Z,24.99
2023-05-13T10:23:07.617Z,24.98
2023-05-13T10:24:07.616Z,24.97
2023-05-13T10:25:07.594Z,24.98
2023-05-13T10:26:07.583Z,24.98
2023-05-13T10:27:07.585Z,24.97
2023-05-13T10:28:07.575Z,24.98
2023-05-13T10:29:07.576Z,24.95
2023-05-13T10:30:07.561Z,24.97
2023-05-13T10:31:07.592Z,24.97
2023-05-13T10:32:07.560Z,24.97
2023-05-13T10:33:07.561Z,24.99
2023-05-13T10:34:07.557Z,24.98
2023-05-13T10:35:07.560Z,24.99
2023-05-13T10:36:07.555Z,24.97
2023-05-13T10:37:07.578Z,24.95
2023-05-13T10:38:07.583Z,24.94
2023-05-13T10:39:07.591Z,24.92
2023-05-13T10:40:07.703Z,24.94
2023-05-13T10:41:07.619Z,24.97
2023-05-13T10:42:07.630Z,24.97
2023-05-13T10:43:07.644Z,24.98
2023-05-13T10:44:09.830Z,24.95
2023-05-13T10:45:07.666Z,24.94
2023-05-13T10:46:07.770Z,24.97
2023-05-13T10:47:07.755Z,24.95
2023-05-13T10:48:07.924Z,24.92
2023-05-13T10:49:07.713Z,24.95
2023-05-13T10:50:07.755Z,24.95
2023-05-13T10:51:07.751Z,24.94
2023-05-13T10:52:07.764Z,24.95
2023-05-13T10:53:07.761Z,24.95
2023-05-13T10:54:07.799Z,24.98
2023-05-13T10:55:07.791Z,24.95
2023-05-13T10:56:07.848Z,24.95
2023-05-13T10:57:07.836Z,24.95
2023-05-13T10:58:07.834Z,24.94
2023-05-13T10:59:07.849Z,24.94
2023-05-13T11:00:07.871Z,24.98
2023-05-13T11:01:07.922Z,24.98
2023-05-13T11:02:07.904Z,24.98
2023-05-13T11:03:07.942Z,24.97
2023-05-13T11:04:08.156Z,24.97
2023-05-13T11:05:07.912Z,24.98
2023-05-13T11:06:07.918Z,24.94
2023-05-13T11:07:07.931Z,24.97
2023-05-13T11:08:07.955Z,24.98
2023-05-13T11:09:07.963Z,24.94
2023-05-13T11:10:07.966Z,24.95
2023-05-13T11:11:07.987Z,24.97
2023-05-13T11:12:08.000Z,24.95
2023-05-13T11:13:08.008Z,24.99
2023-05-13T11:14:08.539Z,24.97
2023-05-13T11:15:08.021Z,24.98
2023-05-13T11:16:08.081Z,24.95
2023-05-13T11:17:08.046Z,24.99
2023-05-13T11:18:08.101Z,24.98
2023-05-13T11:19:08.240Z,24.99
2023-05-13T11:20:08.090Z,24.99
2023-05-13T11:21:08.109Z,24.99
2023-05-13T11:22:08.079Z,24.99
2023-05-13T11:23:08.090Z,24.98
2023-05-13T11:24:08.113Z,25.01
2023-05-13T11:25:08.118Z,25.01
2023-05-13T11:26:10.056Z,24.99
2023-05-13T11:27:08.121Z,25.01
2023-05-13T11:28:08.116Z,25.01
2023-05-13T11:29:08.126Z,25.01
2023-05-13T11:30:08.105Z,25.02
2023-05-13T11:31:08.104Z,25.04
2023-05-13T11:32:08.090Z,24.99
2023-05-13T11:33:08.187Z,25.01
2023-05-13T11:34:08.080Z,24.99
2023-05-13T11:35:08.068Z,25.02
2023-05-13T11:36:08.069Z,25.01
2023-05-13T11:37:08.071Z,25.02
2023-05-13T11:38:08.047Z,25.01
2023-05-13T11:39:08.036Z,25.02
2023-05-13T11:40:08.055Z,25.05
2023-05-13T11:41:08.044Z,25.04
2023-05-13T11:42:08.020Z,25.07
2023-05-13T11:43:08.014Z,25.05
2023-05-13T11:44:08.007Z,25.07
2023-05-13T11:45:08.004Z,25.07
2023-05-13T11:46:08.048Z,25.05
2023-05-13T11:47:08.116Z,25.02
2023-05-13T11:48:08.009Z,25.04
2023-05-13T11:49:07.961Z,25.02
2023-05-13T11:50:07.959Z,25.07
2023-05-13T11:51:07.957Z,25.02
2023-05-13T11:52:07.960Z,25.04
2023-05-13T11:53:07.934Z,25.02
2023-05-13T11:54:07.934Z,25.01
2023-05-13T11:55:07.930Z,25.04
2023-05-13T11:56:07.928Z,25.02
2023-05-13T11:57:07.908Z,25.02
2023-05-13T11:58:07.906Z,25.02
2023-05-13T11:59:07.911Z,25.07
2023-05-13T12:00:07.912Z,25.02
2023-05-13T12:01:08.537Z,25.02
2023-05-13T12:02:08.026Z,25.04
2023-05-13T12:03:08.104Z,25.05
2023-05-13T12:04:07.890Z,25.01
2023-05-13T12:05:07.931Z,25.02
2023-05-13T12:06:07.850Z,24.99
2023-05-13T12:07:07.854Z,25.02
2023-05-13T12:08:07.838Z,24.99
2023-05-13T12:09:07.865Z,25.02
2023-05-13T12:10:07.827Z,25.01
2023-05-13T12:11:07.821Z,25.02
2023-05-13T12:12:07.807Z,24.99
2023-05-13T12:13:07.797Z,24.99
2023-05-13T12:14:07.802Z,25.01
2023-05-13T12:15:07.792Z,25.04
2023-05-13T12:16:07.842Z,25.04
2023-05-13T12:17:07.766Z,25.04
2023-05-13T12:18:07.877Z,25.04
2023-05-13T12:19:07.886Z,25.02
2023-05-13T12:20:07.748Z,25.04
2023-05-13T12:21:07.745Z,25.05
2023-05-13T12:22:07.732Z,25.05
2023-05-13T12:23:07.725Z,24.99
2023-05-13T12:24:07.713Z,25.05
2023-05-13T12:25:07.714Z,24.99
2023-05-13T12:26:07.718Z,25.04
2023-05-13T12:27:09.473Z,25.02
2023-05-13T12:28:07.692Z,25.04
2023-05-13T12:29:07.684Z,25.01
2023-05-13T12:30:07.679Z,25.02
2023-05-13T12:31:07.682Z,25.04
2023-05-13T12:32:07.661Z,25.01
2023-05-13T12:33:07.690Z,25.02
2023-05-13T12:34:07.652Z,24.99
2023-05-13T12:35:07.638Z,25.02
2023-05-13T12:36:07.634Z,25.02
2023-05-13T12:37:07.724Z,25.01
2023-05-13T12:38:07.623Z,25.02
2023-05-13T12:39:07.613Z,25.01
2023-05-13T12:40:07.600Z,25.01
2023-05-13T12:41:07.651Z,25.05
2023-05-13T12:42:07.590Z,25.04
2023-05-13T12:43:07.586Z,25.07
2023-05-13T12:44:07.567Z,25.05
2023-05-13T12:45:07.580Z,25.05
2023-05-13T12:46:07.581Z,25.04
2023-05-13T12:47:07.581Z,25.07
2023-05-13T12:48:07.562Z,25.07
2023-05-13T12:49:07.539Z,25.05
2023-05-13T12:50:07.539Z,25.05
2023-05-13T12:51:07.523Z,25.05
2023-05-13T12:52:07.521Z,25.07